sensor_id;sensor_type;location;lat;lon;timestamp;temperature;humidity
9984;DHT22;16737;50.932;6.780;2023-12-20T00:01:57;10.80;99.90
9984;DHT22;16737;50.932;6.780;2023-12-20T00:04:24;10.80;99.90
9984;DHT22;16737;50.932;6.780;2023-12-20T00:06:51;10.80;99.90
9984;DHT22;16737;50.932;6.780;2023-12-20T00:09:18;10.80;99.90
9984;DHT22;16737;50.932;6.780;2023-12-20T00:11:46;10.80;99.90
9984;DHT22;16737;50.932;6.780;2023-12-20T00:14:13;10.80;99.90
9984;DHT22;16737;50.932;6.780;2023-12-20T00:16:40;10.80;99.90
9984;DHT22;16737;50.932;6.780;2023-12-20T00:19:07;10.80;99.90
9984;DHT22;16737;50.932;6.780;2023-12-20T00:21:34;10.90;99.90
9984;DHT22;16737;50.932;6.780;2023-12-20T00:24:01;10.80;99.90
9984;DHT22;16737;50.932;6.780;2023-12-20T00:26:28;10.90;99.90
9984;DHT22;16737;50.932;6.780;2023-12-20T00:28:57;10.80;99.90
9984;DHT22;16737;50.932;6.780;2023-12-20T00:31:24;10.90;99.90
9984;DHT22;16737;50.932;6.780;2023-12-20T00:33:51;10.80;99.90
9984;DHT22;16737;50.932;6.780;2023-12-20T00:36:17;10.80;99.90
9984;DHT22;16737;50.932;6.780;2023-12-20T00:38:45;10.90;99.90
9984;DHT22;16737;50.932;6.780;2023-12-20T00:41:12;10.80;99.90
9984;DHT22;16737;50.932;6.780;2023-12-20T00:43:39;10.80;99.90
9984;DHT22;16737;50.932;6.780;2023-12-20T00:46:07;10.90;99.90
9984;DHT22;16737;50.932;6.780;2023-12-20T00:48:35;10.80;99.90
9984;DHT22;16737;50.932;6.780;2023-12-20T00:51:02;10.90;99.90
9984;DHT22;16737;50.932;6.780;2023-12-20T00:53:29;10.80;99.90
9984;DHT22;16737;50.932;6.780;2023-12-20T00:55:56;10.80;99.90
9984;DHT22;16737;50.932;6.780;2023-12-20T00:58:24;10.90;99.90
9984;DHT22;16737;50.932;6.780;2023-12-20T01:00:52;10.80;99.90
9984;DHT22;16737;50.932;6.780;2023-12-20T01:03:20;10.80;99.90
9984;DHT22;16737;50.932;6.780;2023-12-20T01:05:47;10.80;99.90
9984;DHT22;16737;50.932;6.780;2023-12-20T01:08:14;10.80;99.90
9984;DHT22;16737;50.932;6.780;2023-12-20T01:10:41;10.80;99.90
9984;DHT22;16737;50.932;6.780;2023-12-20T01:13:08;10.80;99.90
9984;DHT22;16737;50.932;6.780;2023-12-20T01:15:35;10.70;99.90
9984;DHT22;16737;50.932;6.780;2023-12-20T01:18:02;10.70;99.90
9984;DHT22;16737;50.932;6.780;2023-12-20T01:20:31;10.70;99.90
9984;DHT22;16737;50.932;6.780;2023-12-20T01:22:58;10.70;99.90
9984;DHT22;16737;50.932;6.780;2023-12-20T01:25:25;10.70;99.90
9984;DHT22;16737;50.932;6.780;2023-12-20T01:27:52;10.60;99.90
9984;DHT22;16737;50.932;6.780;2023-12-20T01:30:19;10.60;99.90
9984;DHT22;16737;50.932;6.780;2023-12-20T01:32:45;10.60;99.90
9984;DHT22;16737;50.932;6.780;2023-12-20T01:35:12;10.60;99.90
9984;DHT22;16737;50.932;6.780;2023-12-20T01:37:41;10.60;99.90
9984;DHT22;16737;50.932;6.780;2023-12-20T01:40:09;10.60;99.90
9984;DHT22;16737;50.932;6.780;2023-12-20T01:42:37;10.50;99.90
9984;DHT22;16737;50.932;6.780;2023-12-20T01:45:05;10.50;99.90
9984;DHT22;16737;50.932;6.780;2023-12-20T01:47:32;10.50;99.90
9984;DHT22;16737;50.932;6.780;2023-12-20T01:49:59;10.50;99.90
9984;DHT22;16737;50.932;6.780;2023-12-20T01:52:29;10.40;99.90
9984;DHT22;16737;50.932;6.780;2023-12-20T01:54:57;10.40;99.90
9984;DHT22;16737;50.932;6.780;2023-12-20T01:57:28;10.30;99.90
9984;DHT22;16737;50.932;6.780;2023-12-20T01:59:56;10.30;99.90
9984;DHT22;16737;50.932;6.780;2023-12-20T02:02:23;10.20;99.90
9984;DHT22;16737;50.932;6.780;2023-12-20T02:04:50;10.20;99.90
9984;DHT22;16737;50.932;6.780;2023-12-20T02:07:18;10.10;99.90
9984;DHT22;16737;50.932;6.780;2023-12-20T02:09:47;10.00;99.90
9984;DHT22;16737;50.932;6.780;2023-12-20T02:12:15;10.00;99.90
9984;DHT22;16737;50.932;6.780;2023-12-20T02:14:42;9.90;99.90
9984;DHT22;16737;50.932;6.780;2023-12-20T02:17:09;9.90;99.90
9984;DHT22;16737;50.932;6.780;2023-12-20T02:19:36;9.80;99.90
9984;DHT22;16737;50.932;6.780;2023-12-20T02:22:09;9.80;99.90
9984;DHT22;16737;50.932;6.780;2023-12-20T02:24:36;9.70;99.90
9984;DHT22;16737;50.932;6.780;2023-12-20T02:27:05;9.70;99.90
9984;DHT22;16737;50.932;6.780;2023-12-20T02:29:33;9.70;99.90
9984;DHT22;16737;50.932;6.780;2023-12-20T02:32:01;9.60;99.90
9984;DHT22;16737;50.932;6.780;2023-12-20T02:34:28;9.60;99.90
9984;DHT22;16737;50.932;6.780;2023-12-20T02:36:55;9.60;99.90
9984;DHT22;16737;50.932;6.780;2023-12-20T02:39:23;9.50;99.90
9984;DHT22;16737;50.932;6.780;2023-12-20T02:41:50;9.50;99.90
9984;DHT22;16737;50.932;6.780;2023-12-20T02:44:17;9.40;99.90
9984;DHT22;16737;50.932;6.780;2023-12-20T02:46:44;9.40;99.90
9984;DHT22;16737;50.932;6.780;2023-12-20T02:49:11;9.40;99.90
9984;DHT22;16737;50.932;6.780;2023-12-20T02:51:38;9.40;99.90
9984;DHT22;16737;50.932;6.780;2023-12-20T02:54:05;9.30;99.90
9984;DHT22;16737;50.932;6.780;2023-12-20T02:56:34;9.30;99.90
9984;DHT22;16737;50.932;6.780;2023-12-20T02:59:01;9.30;99.90
9984;DHT22;16737;50.932;6.780;2023-12-20T03:01:31;9.30;99.90
9984;DHT22;16737;50.932;6.780;2023-12-20T03:03:58;9.30;99.90
9984;DHT22;16737;50.932;6.780;2023-12-20T03:06:25;9.30;99.90
9984;DHT22;16737;50.932;6.780;2023-12-20T03:08:52;9.20;99.90
9984;DHT22;16737;50.932;6.780;2023-12-20T03:11:19;9.20;99.90
9984;DHT22;16737;50.932;6.780;2023-12-20T03:13:47;9.20;99.90
9984;DHT22;16737;50.932;6.780;2023-12-20T03:16:14;9.20;99.90
9984;DHT22;16737;50.932;6.780;2023-12-20T03:18:42;9.20;99.90
9984;DHT22;16737;50.932;6.780;2023-12-20T03:21:09;9.20;99.90
9984;DHT22;16737;50.932;6.780;2023-12-20T03:23:36;9.30;99.90
9984;DHT22;16737;50.932;6.780;2023-12-20T03:26:03;9.30;99.90
9984;DHT22;16737;50.932;6.780;2023-12-20T03:28:33;9.30;99.90
9984;DHT22;16737;50.932;6.780;2023-12-20T03:31:02;9.30;99.90
9984;DHT22;16737;50.932;6.780;2023-12-20T03:33:29;9.30;99.90
9984;DHT22;16737;50.932;6.780;2023-12-20T03:35:56;9.30;99.90
9984;DHT22;16737;50.932;6.780;2023-12-20T03:38:23;9.30;99.90
9984;DHT22;16737;50.932;6.780;2023-12-20T03:40:50;9.30;99.90
9984;DHT22;16737;50.932;6.780;2023-12-20T03:43:17;9.30;99.90
9984;DHT22;16737;50.932;6.780;2023-12-20T03:45:44;9.30;99.90
9984;DHT22;16737;50.932;6.780;2023-12-20T03:48:12;9.30;99.90
9984;DHT22;16737;50.932;6.780;2023-12-20T03:50:39;9.30;99.90
9984;DHT22;16737;50.932;6.780;2023-12-20T03:53:06;9.40;99.90
9984;DHT22;16737;50.932;6.780;2023-12-20T03:55:34;9.30;99.90
9984;DHT22;16737;50.932;6.780;2023-12-20T03:58:01;9.40;99.90
9984;DHT22;16737;50.932;6.780;2023-12-20T04:00:27;9.40;99.90
9984;DHT22;16737;50.932;6.780;2023-12-20T04:02:54;9.40;99.90
9984;DHT22;16737;50.932;6.780;2023-12-20T04:05:22;9.40;99.90
9984;DHT22;16737;50.932;6.780;2023-12-20T04:07:48;9.40;99.90
9984;DHT22;16737;50.932;6.780;2023-12-20T04:10:16;9.40;99.90
9984;DHT22;16737;50.932;6.780;2023-12-20T04:12:42;9.40;99.90
9984;DHT22;16737;50.932;6.780;2023-12-20T04:15:09;9.40;99.90
9984;DHT22;16737;50.932;6.780;2023-12-20T04:17:37;9.40;99.90
9984;DHT22;16737;50.932;6.780;2023-12-20T04:20:05;9.40;99.90
9984;DHT22;16737;50.932;6.780;2023-12-20T04:22:34;9.40;99.90
9984;DHT22;16737;50.932;6.780;2023-12-20T04:25:02;9.40;99.90
9984;DHT22;16737;50.932;6.780;2023-12-20T04:27:29;9.40;99.90
9984;DHT22;16737;50.932;6.780;2023-12-20T04:29:56;9.40;99.90
9984;DHT22;16737;50.932;6.780;2023-12-20T04:32:23;9.40;99.90
9984;DHT22;16737;50.932;6.780;2023-12-20T04:34:49;9.40;99.90
9984;DHT22;16737;50.932;6.780;2023-12-20T04:37:16;9.40;99.90
9984;DHT22;16737;50.932;6.780;2023-12-20T04:39:45;9.40;99.90
9984;DHT22;16737;50.932;6.780;2023-12-20T04:42:12;9.40;99.90
9984;DHT22;16737;50.932;6.780;2023-12-20T04:44:39;9.30;99.90
9984;DHT22;16737;50.932;6.780;2023-12-20T04:47:06;9.40;99.90
9984;DHT22;16737;50.932;6.780;2023-12-20T04:49:32;9.30;99.90
9984;DHT22;16737;50.932;6.780;2023-12-20T04:51:59;9.30;99.90
9984;DHT22;16737;50.932;6.780;2023-12-20T04:54:26;9.30;99.90
9984;DHT22;16737;50.932;6.780;2023-12-20T04:56:55;9.30;99.90
9984;DHT22;16737;50.932;6.780;2023-12-20T04:59:21;9.20;99.90
9984;DHT22;16737;50.932;6.780;2023-12-20T05:01:48;9.20;99.90
9984;DHT22;16737;50.932;6.780;2023-12-20T05:04:15;9.20;99.90
9984;DHT22;16737;50.932;6.780;2023-12-20T05:06:42;9.20;99.90
9984;DHT22;16737;50.932;6.780;2023-12-20T05:09:09;9.10;99.90
9984;DHT22;16737;50.932;6.780;2023-12-20T05:11:36;9.10;99.90
9984;DHT22;16737;50.932;6.780;2023-12-20T05:14:04;9.10;99.90
9984;DHT22;16737;50.932;6.780;2023-12-20T05:16:32;9.10;99.90
9984;DHT22;16737;50.932;6.780;2023-12-20T05:18:59;9.10;99.90
9984;DHT22;16737;50.932;6.780;2023-12-20T05:21:31;9.00;99.90
9984;DHT22;16737;50.932;6.780;2023-12-20T05:23:59;9.00;99.90
9984;DHT22;16737;50.932;6.780;2023-12-20T05:26:26;9.00;99.90
9984;DHT22;16737;50.932;6.780;2023-12-20T05:28:55;9.00;99.90
9984;DHT22;16737;50.932;6.780;2023-12-20T05:31:23;9.00;99.90
9984;DHT22;16737;50.932;6.780;2023-12-20T05:33:50;9.00;99.90
9984;DHT22;16737;50.932;6.780;2023-12-20T05:36:17;9.00;99.90
9984;DHT22;16737;50.932;6.780;2023-12-20T05:38:45;9.00;99.90
9984;DHT22;16737;50.932;6.780;2023-12-20T05:41:12;8.90;99.90
9984;DHT22;16737;50.932;6.780;2023-12-20T05:43:39;8.90;99.90
9984;DHT22;16737;50.932;6.780;2023-12-20T05:46:06;8.90;99.90
9984;DHT22;16737;50.932;6.780;2023-12-20T05:48:35;8.90;99.90
9984;DHT22;16737;50.932;6.780;2023-12-20T05:51:02;8.90;99.90
9984;DHT22;16737;50.932;6.780;2023-12-20T05:53:29;8.90;99.90
9984;DHT22;16737;50.932;6.780;2023-12-20T05:55:56;8.90;99.90
9984;DHT22;16737;50.932;6.780;2023-12-20T05:58:23;9.00;99.90
9984;DHT22;16737;50.932;6.780;2023-12-20T06:00:50;8.90;99.90
9984;DHT22;16737;50.932;6.780;2023-12-20T06:03:16;9.00;99.90
9984;DHT22;16737;50.932;6.780;2023-12-20T06:05:45;9.00;99.90
9984;DHT22;16737;50.932;6.780;2023-12-20T06:08:12;9.00;99.90
9984;DHT22;16737;50.932;6.780;2023-12-20T06:10:40;9.00;99.90
9984;DHT22;16737;50.932;6.780;2023-12-20T06:13:07;9.00;99.90
9984;DHT22;16737;50.932;6.780;2023-12-20T06:15:33;9.00;99.90
9984;DHT22;16737;50.932;6.780;2023-12-20T06:18:01;9.00;99.90
9984;DHT22;16737;50.932;6.780;2023-12-20T06:20:28;9.00;99.90
9984;DHT22;16737;50.932;6.780;2023-12-20T06:22:57;9.00;99.90
9984;DHT22;16737;50.932;6.780;2023-12-20T06:25:24;9.00;99.90
9984;DHT22;16737;50.932;6.780;2023-12-20T06:27:51;9.10;99.90
9984;DHT22;16737;50.932;6.780;2023-12-20T06:30:18;9.10;99.90
9984;DHT22;16737;50.932;6.780;2023-12-20T06:32:45;9.10;99.90
9984;DHT22;16737;50.932;6.780;2023-12-20T06:35:13;9.10;99.90
9984;DHT22;16737;50.932;6.780;2023-12-20T06:37:40;9.00;99.90
9984;DHT22;16737;50.932;6.780;2023-12-20T06:40:09;9.10;99.90
9984;DHT22;16737;50.932;6.780;2023-12-20T06:42:37;9.10;99.90
9984;DHT22;16737;50.932;6.780;2023-12-20T06:45:05;9.10;99.90
9984;DHT22;16737;50.932;6.780;2023-12-20T06:47:32;9.10;99.90
9984;DHT22;16737;50.932;6.780;2023-12-20T06:49:59;9.10;99.90
9984;DHT22;16737;50.932;6.780;2023-12-20T06:52:26;9.10;99.90
9984;DHT22;16737;50.932;6.780;2023-12-20T06:54:53;9.10;99.90
9984;DHT22;16737;50.932;6.780;2023-12-20T06:57:22;9.10;99.90
9984;DHT22;16737;50.932;6.780;2023-12-20T06:59:49;9.10;99.90
9984;DHT22;16737;50.932;6.780;2023-12-20T07:02:17;9.10;99.90
9984;DHT22;16737;50.932;6.780;2023-12-20T07:04:44;9.10;99.90
9984;DHT22;16737;50.932;6.780;2023-12-20T07:07:10;9.20;99.90
9984;DHT22;16737;50.932;6.780;2023-12-20T07:09:37;9.20;99.90
9984;DHT22;16737;50.932;6.780;2023-12-20T07:12:05;9.20;99.90
9984;DHT22;16737;50.932;6.780;2023-12-20T07:14:33;9.20;99.90
9984;DHT22;16737;50.932;6.780;2023-12-20T07:17:00;9.20;99.90
9984;DHT22;16737;50.932;6.780;2023-12-20T07:19:27;9.20;99.90
9984;DHT22;16737;50.932;6.780;2023-12-20T07:21:54;9.20;99.90
9984;DHT22;16737;50.932;6.780;2023-12-20T07:24:21;9.20;99.90
9984;DHT22;16737;50.932;6.780;2023-12-20T07:26:48;9.20;99.90
9984;DHT22;16737;50.932;6.780;2023-12-20T07:29:15;9.20;99.90
9984;DHT22;16737;50.932;6.780;2023-12-20T07:31:43;9.20;99.90
9984;DHT22;16737;50.932;6.780;2023-12-20T07:34:10;9.20;99.90
9984;DHT22;16737;50.932;6.780;2023-12-20T07:36:37;9.20;99.90
9984;DHT22;16737;50.932;6.780;2023-12-20T07:39:04;9.20;99.90
9984;DHT22;16737;50.932;6.780;2023-12-20T07:41:31;9.20;99.90
9984;DHT22;16737;50.932;6.780;2023-12-20T07:43:58;9.20;99.90
9984;DHT22;16737;50.932;6.780;2023-12-20T07:46:25;9.20;99.90
9984;DHT22;16737;50.932;6.780;2023-12-20T07:48:54;9.20;99.90
9984;DHT22;16737;50.932;6.780;2023-12-20T07:51:21;9.20;99.90
9984;DHT22;16737;50.932;6.780;2023-12-20T07:53:48;9.20;99.90
9984;DHT22;16737;50.932;6.780;2023-12-20T07:56:15;9.30;99.90
9984;DHT22;16737;50.932;6.780;2023-12-20T07:58:42;9.30;99.90
9984;DHT22;16737;50.932;6.780;2023-12-20T08:01:10;9.30;99.90
9984;DHT22;16737;50.932;6.780;2023-12-20T08:03:37;9.30;99.90
9984;DHT22;16737;50.932;6.780;2023-12-20T08:06:06;9.30;99.90
9984;DHT22;16737;50.932;6.780;2023-12-20T08:08:33;9.30;99.90
9984;DHT22;16737;50.932;6.780;2023-12-20T08:11:00;9.30;99.90
9984;DHT22;16737;50.932;6.780;2023-12-20T08:13:27;9.30;99.90
9984;DHT22;16737;50.932;6.780;2023-12-20T08:15:55;9.30;99.90
9984;DHT22;16737;50.932;6.780;2023-12-20T08:18:22;9.30;99.90
9984;DHT22;16737;50.932;6.780;2023-12-20T08:20:49;9.30;99.90
9984;DHT22;16737;50.932;6.780;2023-12-20T08:23:19;9.30;99.90
9984;DHT22;16737;50.932;6.780;2023-12-20T08:25:47;9.30;99.90
9984;DHT22;16737;50.932;6.780;2023-12-20T08:28:14;9.30;99.90
9984;DHT22;16737;50.932;6.780;2023-12-20T08:30:41;9.20;99.90
9984;DHT22;16737;50.932;6.780;2023-12-20T08:33:08;9.20;99.90
9984;DHT22;16737;50.932;6.780;2023-12-20T08:35:38;9.20;99.90
9984;DHT22;16737;50.932;6.780;2023-12-20T08:38:05;9.20;99.90
9984;DHT22;16737;50.932;6.780;2023-12-20T08:40:33;9.20;99.90
9984;DHT22;16737;50.932;6.780;2023-12-20T08:43:01;9.20;99.90
9984;DHT22;16737;50.932;6.780;2023-12-20T08:45:28;9.20;99.90
9984;DHT22;16737;50.932;6.780;2023-12-20T08:47:55;9.20;99.90
9984;DHT22;16737;50.932;6.780;2023-12-20T08:50:22;9.20;99.90
9984;DHT22;16737;50.932;6.780;2023-12-20T08:52:50;9.20;99.90
9984;DHT22;16737;50.932;6.780;2023-12-20T08:55:18;9.20;99.90
9984;DHT22;16737;50.932;6.780;2023-12-20T08:57:47;9.20;99.90
9984;DHT22;16737;50.932;6.780;2023-12-20T09:00:15;9.20;99.90
9984;DHT22;16737;50.932;6.780;2023-12-20T09:02:42;9.10;99.90
9984;DHT22;16737;50.932;6.780;2023-12-20T09:05:09;9.20;99.90
9984;DHT22;16737;50.932;6.780;2023-12-20T09:07:36;9.20;99.90
9984;DHT22;16737;50.932;6.780;2023-12-20T09:10:03;9.20;99.90
9984;DHT22;16737;50.932;6.780;2023-12-20T09:12:30;9.20;99.90
9984;DHT22;16737;50.932;6.780;2023-12-20T09:14:59;9.20;99.90
9984;DHT22;16737;50.932;6.780;2023-12-20T09:17:28;9.30;99.90
9984;DHT22;16737;50.932;6.780;2023-12-20T09:19:55;9.30;99.90
9984;DHT22;16737;50.932;6.780;2023-12-20T09:22:22;9.30;99.90
9984;DHT22;16737;50.932;6.780;2023-12-20T09:24:48;9.30;99.90
9984;DHT22;16737;50.932;6.780;2023-12-20T09:27:15;9.30;99.90
9984;DHT22;16737;50.932;6.780;2023-12-20T09:29:42;9.30;99.90
9984;DHT22;16737;50.932;6.780;2023-12-20T09:32:11;9.30;99.90
9984;DHT22;16737;50.932;6.780;2023-12-20T09:34:38;9.30;99.90
9984;DHT22;16737;50.932;6.780;2023-12-20T09:37:05;9.40;99.90
9984;DHT22;16737;50.932;6.780;2023-12-20T09:39:33;9.40;99.90
9984;DHT22;16737;50.932;6.780;2023-12-20T09:42:01;9.40;99.90
9984;DHT22;16737;50.932;6.780;2023-12-20T09:44:30;9.40;99.90
9984;DHT22;16737;50.932;6.780;2023-12-20T09:46:58;9.40;99.90
9984;DHT22;16737;50.932;6.780;2023-12-20T09:49:30;9.50;99.90
9984;DHT22;16737;50.932;6.780;2023-12-20T09:51:57;9.50;99.90
9984;DHT22;16737;50.932;6.780;2023-12-20T09:54:24;9.50;99.90
9984;DHT22;16737;50.932;6.780;2023-12-20T09:56:52;9.50;99.90
9984;DHT22;16737;50.932;6.780;2023-12-20T09:59:19;9.50;99.90
9984;DHT22;16737;50.932;6.780;2023-12-20T10:01:46;9.60;99.90
9984;DHT22;16737;50.932;6.780;2023-12-20T10:04:15;9.60;99.90
9984;DHT22;16737;50.932;6.780;2023-12-20T10:06:44;9.60;99.90
9984;DHT22;16737;50.932;6.780;2023-12-20T10:09:12;9.60;99.90
9984;DHT22;16737;50.932;6.780;2023-12-20T10:11:40;9.60;99.90
9984;DHT22;16737;50.932;6.780;2023-12-20T10:14:07;9.60;99.90
9984;DHT22;16737;50.932;6.780;2023-12-20T10:16:34;9.60;99.90
9984;DHT22;16737;50.932;6.780;2023-12-20T10:19:01;9.70;99.90
9984;DHT22;16737;50.932;6.780;2023-12-20T10:21:28;9.70;99.90
9984;DHT22;16737;50.932;6.780;2023-12-20T10:23:57;9.60;99.90
9984;DHT22;16737;50.932;6.780;2023-12-20T10:26:25;9.70;99.90
9984;DHT22;16737;50.932;6.780;2023-12-20T10:28:54;9.70;99.90
9984;DHT22;16737;50.932;6.780;2023-12-20T10:31:29;9.70;99.90
9984;DHT22;16737;50.932;6.780;2023-12-20T10:33:58;9.70;99.90
9984;DHT22;16737;50.932;6.780;2023-12-20T10:36:26;9.70;99.90
9984;DHT22;16737;50.932;6.780;2023-12-20T10:38:57;9.70;99.90
9984;DHT22;16737;50.932;6.780;2023-12-20T10:41:26;9.70;99.90
9984;DHT22;16737;50.932;6.780;2023-12-20T10:43:56;9.70;99.90
9984;DHT22;16737;50.932;6.780;2023-12-20T10:46:26;9.70;99.90
9984;DHT22;16737;50.932;6.780;2023-12-20T10:48:55;9.70;99.90
9984;DHT22;16737;50.932;6.780;2023-12-20T10:51:24;9.80;99.90
9984;DHT22;16737;50.932;6.780;2023-12-20T10:53:53;9.70;99.90
9984;DHT22;16737;50.932;6.780;2023-12-20T10:56:22;9.70;99.90
9984;DHT22;16737;50.932;6.780;2023-12-20T10:58:50;9.80;99.90
9984;DHT22;16737;50.932;6.780;2023-12-20T11:01:18;9.70;99.90
9984;DHT22;16737;50.932;6.780;2023-12-20T11:03:49;9.70;99.90
9984;DHT22;16737;50.932;6.780;2023-12-20T11:06:33;9.80;99.90
9984;DHT22;16737;50.932;6.780;2023-12-20T11:09:13;9.70;99.90
9984;DHT22;16737;50.932;6.780;2023-12-20T11:11:56;9.70;99.90
9984;DHT22;16737;50.932;6.780;2023-12-20T11:14:37;9.70;99.90
9984;DHT22;16737;50.932;6.780;2023-12-20T11:17:09;9.70;99.90
9984;DHT22;16737;50.932;6.780;2023-12-20T11:22:37;9.80;99.90
9984;DHT22;16737;50.932;6.780;2023-12-20T11:25:08;9.80;99.90
9984;DHT22;16737;50.932;6.780;2023-12-20T11:27:41;9.80;99.90
9984;DHT22;16737;50.932;6.780;2023-12-20T11:30:10;9.80;99.90
9984;DHT22;16737;50.932;6.780;2023-12-20T11:32:37;9.80;99.90
9984;DHT22;16737;50.932;6.780;2023-12-20T11:35:19;9.80;99.90
9984;DHT22;16737;50.932;6.780;2023-12-20T11:37:49;9.80;99.90
9984;DHT22;16737;50.932;6.780;2023-12-20T11:40:18;9.80;99.90
9984;DHT22;16737;50.932;6.780;2023-12-20T11:42:50;9.80;99.90
9984;DHT22;16737;50.932;6.780;2023-12-20T11:45:19;9.80;99.90
9984;DHT22;16737;50.932;6.780;2023-12-20T11:47:49;9.80;99.90
9984;DHT22;16737;50.932;6.780;2023-12-20T11:50:17;9.90;99.90
9984;DHT22;16737;50.932;6.780;2023-12-20T11:52:44;9.90;99.90
9984;DHT22;16737;50.932;6.780;2023-12-20T11:55:11;9.90;99.90
9984;DHT22;16737;50.932;6.780;2023-12-20T11:57:38;9.80;99.90
9984;DHT22;16737;50.932;6.780;2023-12-20T12:00:07;9.90;99.90
9984;DHT22;16737;50.932;6.780;2023-12-20T12:02:34;9.90;99.90
9984;DHT22;16737;50.932;6.780;2023-12-20T12:05:01;9.90;99.90
9984;DHT22;16737;50.932;6.780;2023-12-20T12:07:30;9.90;99.90
9984;DHT22;16737;50.932;6.780;2023-12-20T12:09:57;9.90;99.90
9984;DHT22;16737;50.932;6.780;2023-12-20T12:12:25;9.90;99.90
9984;DHT22;16737;50.932;6.780;2023-12-20T12:14:52;9.90;99.90
9984;DHT22;16737;50.932;6.780;2023-12-20T12:17:23;9.90;99.90
9984;DHT22;16737;50.932;6.780;2023-12-20T12:19:51;10.00;99.90
9984;DHT22;16737;50.932;6.780;2023-12-20T12:22:29;9.90;99.90
9984;DHT22;16737;50.932;6.780;2023-12-20T12:24:59;10.00;99.90
9984;DHT22;16737;50.932;6.780;2023-12-20T12:27:35;10.00;99.90
9984;DHT22;16737;50.932;6.780;2023-12-20T12:30:05;10.00;99.90
9984;DHT22;16737;50.932;6.780;2023-12-20T12:32:35;10.00;99.90
9984;DHT22;16737;50.932;6.780;2023-12-20T12:35:03;10.00;99.90
9984;DHT22;16737;50.932;6.780;2023-12-20T12:37:33;10.00;99.90
9984;DHT22;16737;50.932;6.780;2023-12-20T12:40:01;10.00;99.90
9984;DHT22;16737;50.932;6.780;2023-12-20T12:42:30;10.00;99.90
9984;DHT22;16737;50.932;6.780;2023-12-20T12:44:57;10.00;99.90
9984;DHT22;16737;50.932;6.780;2023-12-20T12:47:24;10.00;99.90
9984;DHT22;16737;50.932;6.780;2023-12-20T12:49:53;10.00;99.90
9984;DHT22;16737;50.932;6.780;2023-12-20T12:52:20;10.00;99.90
9984;DHT22;16737;50.932;6.780;2023-12-20T12:54:47;10.00;99.90
9984;DHT22;16737;50.932;6.780;2023-12-20T12:57:14;10.00;99.90
9984;DHT22;16737;50.932;6.780;2023-12-20T12:59:41;10.10;99.90
9984;DHT22;16737;50.932;6.780;2023-12-20T13:02:09;10.10;99.90
9984;DHT22;16737;50.932;6.780;2023-12-20T13:04:36;10.10;99.90
9984;DHT22;16737;50.932;6.780;2023-12-20T13:07:04;10.10;99.90
9984;DHT22;16737;50.932;6.780;2023-12-20T13:09:32;10.10;99.90
9984;DHT22;16737;50.932;6.780;2023-12-20T13:12:00;10.10;99.90
9984;DHT22;16737;50.932;6.780;2023-12-20T13:14:29;10.10;99.90
9984;DHT22;16737;50.932;6.780;2023-12-20T13:17:06;10.10;99.90
9984;DHT22;16737;50.932;6.780;2023-12-20T13:19:33;10.10;99.90
9984;DHT22;16737;50.932;6.780;2023-12-20T13:22:00;10.10;99.90
9984;DHT22;16737;50.932;6.780;2023-12-20T13:24:29;10.10;99.90
9984;DHT22;16737;50.932;6.780;2023-12-20T13:26:56;10.10;99.90
9984;DHT22;16737;50.932;6.780;2023-12-20T13:29:23;10.10;99.90
9984;DHT22;16737;50.932;6.780;2023-12-20T13:31:52;10.10;99.90
9984;DHT22;16737;50.932;6.780;2023-12-20T13:34:19;10.10;99.90
9984;DHT22;16737;50.932;6.780;2023-12-20T13:36:46;10.10;99.90
9984;DHT22;16737;50.932;6.780;2023-12-20T13:39:15;10.10;99.90
9984;DHT22;16737;50.932;6.780;2023-12-20T13:41:44;10.10;99.90
9984;DHT22;16737;50.932;6.780;2023-12-20T13:44:12;10.10;99.90
9984;DHT22;16737;50.932;6.780;2023-12-20T13:46:41;10.10;99.90
9984;DHT22;16737;50.932;6.780;2023-12-20T13:49:08;10.10;99.90
9984;DHT22;16737;50.932;6.780;2023-12-20T13:51:36;10.20;99.90
9984;DHT22;16737;50.932;6.780;2023-12-20T13:54:04;10.20;99.90
9984;DHT22;16737;50.932;6.780;2023-12-20T13:56:35;10.20;99.90
9984;DHT22;16737;50.932;6.780;2023-12-20T13:59:03;10.20;99.90
9984;DHT22;16737;50.932;6.780;2023-12-20T14:01:38;10.20;99.90
9984;DHT22;16737;50.932;6.780;2023-12-20T14:04:11;10.20;99.90
9984;DHT22;16737;50.932;6.780;2023-12-20T14:06:39;10.20;99.90
9984;DHT22;16737;50.932;6.780;2023-12-20T14:09:08;10.20;99.90
9984;DHT22;16737;50.932;6.780;2023-12-20T14:11:40;10.20;99.90
9984;DHT22;16737;50.932;6.780;2023-12-20T14:14:19;10.20;99.90
9984;DHT22;16737;50.932;6.780;2023-12-20T14:16:46;10.20;99.90
9984;DHT22;16737;50.932;6.780;2023-12-20T14:19:18;10.20;99.90
9984;DHT22;16737;50.932;6.780;2023-12-20T14:21:46;10.20;99.90
9984;DHT22;16737;50.932;6.780;2023-12-20T14:24:17;10.20;99.90
9984;DHT22;16737;50.932;6.780;2023-12-20T14:26:47;10.30;99.90
9984;DHT22;16737;50.932;6.780;2023-12-20T14:29:15;10.20;99.90
9984;DHT22;16737;50.932;6.780;2023-12-20T14:32:01;10.30;99.90
9984;DHT22;16737;50.932;6.780;2023-12-20T14:34:32;10.30;99.90
9984;DHT22;16737;50.932;6.780;2023-12-20T14:36:59;10.30;99.90
9984;DHT22;16737;50.932;6.780;2023-12-20T14:39:26;10.30;99.90
9984;DHT22;16737;50.932;6.780;2023-12-20T14:41:53;10.30;99.90
9984;DHT22;16737;50.932;6.780;2023-12-20T14:44:23;10.30;99.90
9984;DHT22;16737;50.932;6.780;2023-12-20T14:46:50;10.40;99.90
9984;DHT22;16737;50.932;6.780;2023-12-20T14:49:18;10.40;99.90
9984;DHT22;16737;50.932;6.780;2023-12-20T14:51:45;10.40;99.90
9984;DHT22;16737;50.932;6.780;2023-12-20T14:54:13;10.40;99.90
9984;DHT22;16737;50.932;6.780;2023-12-20T14:56:41;10.40;99.90
9984;DHT22;16737;50.932;6.780;2023-12-20T14:59:12;10.50;99.90
9984;DHT22;16737;50.932;6.780;2023-12-20T15:01:41;10.50;99.90
9984;DHT22;16737;50.932;6.780;2023-12-20T15:04:14;10.50;99.90
9984;DHT22;16737;50.932;6.780;2023-12-20T15:06:45;10.50;99.90
9984;DHT22;16737;50.932;6.780;2023-12-20T15:09:13;10.50;99.90
9984;DHT22;16737;50.932;6.780;2023-12-20T15:11:40;10.50;99.90
9984;DHT22;16737;50.932;6.780;2023-12-20T15:14:08;10.50;99.90
9984;DHT22;16737;50.932;6.780;2023-12-20T15:16:44;10.50;99.90
9984;DHT22;16737;50.932;6.780;2023-12-20T15:19:13;10.50;99.90
9984;DHT22;16737;50.932;6.780;2023-12-20T15:21:41;10.50;99.90
9984;DHT22;16737;50.932;6.780;2023-12-20T15:24:09;10.50;99.90
9984;DHT22;16737;50.932;6.780;2023-12-20T15:26:41;10.50;99.90
9984;DHT22;16737;50.932;6.780;2023-12-20T15:29:10;10.50;99.90
9984;DHT22;16737;50.932;6.780;2023-12-20T15:31:47;10.50;99.90
9984;DHT22;16737;50.932;6.780;2023-12-20T15:34:23;10.50;99.90
9984;DHT22;16737;50.932;6.780;2023-12-20T15:36:55;10.50;99.90
9984;DHT22;16737;50.932;6.780;2023-12-20T15:39:25;10.50;99.90
9984;DHT22;16737;50.932;6.780;2023-12-20T15:42:02;10.50;99.90
9984;DHT22;16737;50.932;6.780;2023-12-20T15:44:41;10.50;99.90
9984;DHT22;16737;50.932;6.780;2023-12-20T15:47:10;10.50;99.90
9984;DHT22;16737;50.932;6.780;2023-12-20T15:49:38;10.50;99.90
9984;DHT22;16737;50.932;6.780;2023-12-20T15:52:06;10.50;99.90
9984;DHT22;16737;50.932;6.780;2023-12-20T15:54:33;10.50;99.90
9984;DHT22;16737;50.932;6.780;2023-12-20T15:57:05;10.50;99.90
9984;DHT22;16737;50.932;6.780;2023-12-20T15:59:36;10.40;99.90
9984;DHT22;16737;50.932;6.780;2023-12-20T16:02:07;10.50;99.90
9984;DHT22;16737;50.932;6.780;2023-12-20T16:04:36;10.40;99.90